sensor_id;sensor_type;location;lat;lon;timestamp;pressure;altitude;pressure_sealevel;temperature;humidity
49723;BME280;43484;43.608;1.458;2023-01-15T00:00:20;99764.06;;;18.02;100.00
49723;BME280;43484;43.608;1.458;2023-01-15T00:02:47;99753.69;;;18.02;100.00
49723;BME280;43484;43.608;1.458;2023-01-15T00:05:13;99756.28;;;18.03;100.00
49723;BME280;43484;43.608;1.458;2023-01-15T00:07:40;99751.94;;;18.02;100.00
49723;BME280;43484;43.608;1.458;2023-01-15T00:10:07;99761.47;;;18.02;100.00
49723;BME280;43484;43.608;1.458;2023-01-15T00:12:34;99769.25;;;18.02;100.00
49723;BME280;43484;43.608;1.458;2023-01-15T00:15:00;99760.59;;;18.01;100.00
49723;BME280;43484;43.608;1.458;2023-01-15T00:17:27;99765.78;;;18.00;100.00
49723;BME280;43484;43.608;1.458;2023-01-15T00:19:53;99763.22;;;17.98;100.00
49723;BME280;43484;43.608;1.458;2023-01-15T00:22:20;99763.19;;;17.97;100.00
49723;BME280;43484;43.608;1.458;2023-01-15T00:24:46;99764.94;;;17.95;100.00
49723;BME280;43484;43.608;1.458;2023-01-15T00:27:31;99756.28;;;17.93;100.00
49723;BME280;43484;43.608;1.458;2023-01-15T00:30:05;99754.56;;;17.93;100.00
49723;BME280;43484;43.608;1.458;2023-01-15T00:32:32;99757.13;;;17.92;100.00
49723;BME280;43484;43.608;1.458;2023-01-15T00:34:59;99749.38;;;17.90;100.00
49723;BME280;43484;43.608;1.458;2023-01-15T00:37:26;99744.19;;;17.89;100.00
49723;BME280;43484;43.608;1.458;2023-01-15T00:39:52;99751.97;;;17.87;100.00
49723;BME280;43484;43.608;1.458;2023-01-15T00:42:19;99751.13;;;17.88;100.00
49723;BME280;43484;43.608;1.458;2023-01-15T00:44:46;99743.31;;;17.87;100.00
49723;BME280;43484;43.608;1.458;2023-01-15T00:47:13;99743.31;;;17.87;100.00
49723;BME280;43484;43.608;1.458;2023-01-15T00:49:41;99737.31;;;17.85;100.00
49723;BME280;43484;43.608;1.458;2023-01-15T00:52:08;99741.63;;;17.84;100.00
49723;BME280;43484;43.608;1.458;2023-01-15T00:54:35;99747.69;;;17.85;100.00
49723;BME280;43484;43.608;1.458;2023-01-15T00:57:02;99741.63;;;17.83;100.00
49723;BME280;43484;43.608;1.458;2023-01-15T00:59:29;99741.63;;;17.83;100.00
49723;BME280;43484;43.608;1.458;2023-01-15T01:01:55;99736.44;;;17.81;100.00
49723;BME280;43484;43.608;1.458;2023-01-15T01:04:22;99734.69;;;17.80;100.00
49723;BME280;43484;43.608;1.458;2023-01-15T01:06:48;99732.09;;;17.80;100.00
49723;BME280;43484;43.608;1.458;2023-01-15T01:09:15;99736.44;;;17.83;100.00
49723;BME280;43484;43.608;1.458;2023-01-15T01:11:43;99735.56;;;17.82;100.00
49723;BME280;43484;43.608;1.458;2023-01-15T01:14:10;99730.41;;;17.79;100.00
49723;BME280;43484;43.608;1.458;2023-01-15T01:16:39;99729.53;;;17.80;100.00
49723;BME280;43484;43.608;1.458;2023-01-15T01:19:15;99733.84;;;17.80;100.00
49723;BME280;43484;43.608;1.458;2023-01-15T01:21:42;99727.81;;;17.79;100.00
49723;BME280;43484;43.608;1.458;2023-01-15T01:24:12;99732.13;;;17.77;100.00
49723;BME280;43484;43.608;1.458;2023-01-15T01:26:39;99734.72;;;17.77;100.00
49723;BME280;43484;43.608;1.458;2023-01-15T01:29:06;99724.34;;;17.77;100.00
49723;BME280;43484;43.608;1.458;2023-01-15T01:31:33;99725.22;;;17.78;100.00
49723;BME280;43484;43.608;1.458;2023-01-15T01:33:59;99725.22;;;17.76;100.00
49723;BME280;43484;43.608;1.458;2023-01-15T01:36:29;99723.47;;;17.75;100.00
49723;BME280;43484;43.608;1.458;2023-01-15T01:38:56;99711.41;;;17.76;100.00
49723;BME280;43484;43.608;1.458;2023-01-15T01:41:23;99718.28;;;17.75;100.00
49723;BME280;43484;43.608;1.458;2023-01-15T01:44:04;99719.19;;;17.71;100.00
49723;BME280;43484;43.608;1.458;2023-01-15T01:46:34;99718.31;;;17.71;100.00
49723;BME280;43484;43.608;1.458;2023-01-15T01:49:07;99718.31;;;17.71;100.00
49723;BME280;43484;43.608;1.458;2023-01-15T01:51:40;99708.81;;;17.71;100.00
49723;BME280;43484;43.608;1.458;2023-01-15T01:54:10;99715.72;;;17.71;100.00
49723;BME280;43484;43.608;1.458;2023-01-15T01:56:38;99708.81;;;17.73;100.00
49723;BME280;43484;43.608;1.458;2023-01-15T01:59:05;99708.81;;;17.70;100.00
49723;BME280;43484;43.608;1.458;2023-01-15T02:01:33;99715.72;;;17.71;100.00
49723;BME280;43484;43.608;1.458;2023-01-15T02:04:01;99710.53;;;17.72;100.00
49723;BME280;43484;43.608;1.458;2023-01-15T02:06:28;99720.91;;;17.72;100.00
49723;BME280;43484;43.608;1.458;2023-01-15T02:08:55;99714.00;;;17.73;100.00
49723;BME280;43484;43.608;1.458;2023-01-15T02:11:23;99710.53;;;17.72;100.00
49723;BME280;43484;43.608;1.458;2023-01-15T02:13:59;99704.50;;;17.73;100.00
49723;BME280;43484;43.608;1.458;2023-01-15T02:16:39;99707.09;;;17.75;100.00
49723;BME280;43484;43.608;1.458;2023-01-15T02:19:34;99701.03;;;17.74;100.00
49723;BME280;43484;43.608;1.458;2023-01-15T02:25:09;99707.09;;;17.73;100.00
49723;BME280;43484;43.608;1.458;2023-01-15T02:27:46;99701.91;;;17.75;100.00
49723;BME280;43484;43.608;1.458;2023-01-15T02:30:15;99695.84;;;17.74;100.00
49723;BME280;43484;43.608;1.458;2023-01-15T02:32:50;99700.16;;;17.75;100.00
49723;BME280;43484;43.608;1.458;2023-01-15T02:35:44;99699.31;;;17.73;100.00
49723;BME280;43484;43.608;1.458;2023-01-15T02:38:14;99701.03;;;17.71;100.00
49723;BME280;43484;43.608;1.458;2023-01-15T02:40:43;99701.88;;;17.70;100.00
49723;BME280;43484;43.608;1.458;2023-01-15T02:43:12;99694.91;;;18.08;100.00
49723;BME280;43484;43.608;1.458;2023-01-15T02:45:41;99698.41;;;18.00;100.00
49723;BME280;43484;43.608;1.458;2023-01-15T02:48:12;99694.91;;;18.02;100.00
49723;BME280;43484;43.608;1.458;2023-01-15T02:50:44;99697.50;;;18.11;100.00
49723;BME280;43484;43.608;1.458;2023-01-15T02:53:17;99697.47;;;18.19;100.00
49723;BME280;43484;43.608;1.458;2023-01-15T02:55:47;99694.91;;;18.05;100.00
49723;BME280;43484;43.608;1.458;2023-01-15T02:58:20;99693.25;;;17.85;100.00
49723;BME280;43484;43.608;1.458;2023-01-15T03:00:51;99698.44;;;17.77;100.00
49723;BME280;43484;43.608;1.458;2023-01-15T03:03:35;99689.81;;;17.71;100.00
49723;BME280;43484;43.608;1.458;2023-01-15T03:06:12;99678.50;;;18.05;100.00
49723;BME280;43484;43.608;1.458;2023-01-15T03:08:42;99685.38;;;18.16;100.00
49723;BME280;43484;43.608;1.458;2023-01-15T03:11:16;99677.59;;;18.18;100.00
49723;BME280;43484;43.608;1.458;2023-01-15T03:13:53;99686.25;;;18.09;100.00
49723;BME280;43484;43.608;1.458;2023-01-15T03:16:48;99675.97;;;17.78;100.00
49723;BME280;43484;43.608;1.458;2023-01-15T03:19:47;99677.72;;;17.67;100.00
49723;BME280;43484;43.608;1.458;2023-01-15T03:22:24;99680.31;;;17.64;100.00
49723;BME280;43484;43.608;1.458;2023-01-15T03:25:12;99683.78;;;17.63;100.00
49723;BME280;43484;43.608;1.458;2023-01-15T03:27:41;99682.91;;;17.62;100.00
49723;BME280;43484;43.608;1.458;2023-01-15T03:30:14;99682.03;;;17.62;100.00
49723;BME280;43484;43.608;1.458;2023-01-15T03:32:41;99676.00;;;17.61;100.00
49723;BME280;43484;43.608;1.458;2023-01-15T03:38:15;99671.69;;;17.59;100.00
49723;BME280;43484;43.608;1.458;2023-01-15T03:43:39;99687.22;;;17.59;100.00
49723;BME280;43484;43.608;1.458;2023-01-15T03:49:00;99687.22;;;17.57;100.00
49723;BME280;43484;43.608;1.458;2023-01-15T03:51:38;99695.00;;;17.57;100.00
49723;BME280;43484;43.608;1.458;2023-01-15T03:54:14;99693.28;;;17.58;100.00
49723;BME280;43484;43.608;1.458;2023-01-15T03:56:53;99695.88;;;17.58;100.00
49723;BME280;43484;43.608;1.458;2023-01-15T03:59:34;99699.31;;;17.57;100.00
49723;BME280;43484;43.608;1.458;2023-01-15T04:02:05;99700.19;;;17.56;100.00
49723;BME280;43484;43.608;1.458;2023-01-15T04:04:33;99704.50;;;17.57;100.00
49723;BME280;43484;43.608;1.458;2023-01-15T04:07:01;99705.38;;;17.54;100.00
49723;BME280;43484;43.608;1.458;2023-01-15T04:09:28;99701.91;;;17.53;100.00
49723;BME280;43484;43.608;1.458;2023-01-15T04:11:59;99699.31;;;17.53;100.00
49723;BME280;43484;43.608;1.458;2023-01-15T04:14:28;99701.91;;;17.50;100.00
49723;BME280;43484;43.608;1.458;2023-01-15T04:16:55;99708.81;;;17.47;100.00
49723;BME280;43484;43.608;1.458;2023-01-15T04:19:22;99726.97;;;17.45;100.00
49723;BME280;43484;43.608;1.458;2023-01-15T04:21:48;99717.47;;;17.46;100.00
49723;BME280;43484;43.608;1.458;2023-01-15T04:24:15;99718.31;;;17.54;100.00
49723;BME280;43484;43.608;1.458;2023-01-15T04:26:41;99716.59;;;17.83;100.00
49723;BME280;43484;43.608;1.458;2023-01-15T04:29:08;99708.81;;;17.51;100.00
49723;BME280;43484;43.608;1.458;2023-01-15T04:31:35;99728.69;;;17.49;100.00
49723;BME280;43484;43.608;1.458;2023-01-15T04:34:02;99712.28;;;17.49;100.00
49723;BME280;43484;43.608;1.458;2023-01-15T04:36:29;99710.56;;;17.49;100.00
49723;BME280;43484;43.608;1.458;2023-01-15T04:38:56;99716.59;;;17.50;100.00
49723;BME280;43484;43.608;1.458;2023-01-15T04:41:25;99720.06;;;17.50;100.00
49723;BME280;43484;43.608;1.458;2023-01-15T04:44:10;99716.63;;;17.53;100.00
49723;BME280;43484;43.608;1.458;2023-01-15T04:46:47;99718.31;;;17.54;100.00
49723;BME280;43484;43.608;1.458;2023-01-15T04:49:16;99718.31;;;17.54;100.00
49723;BME280;43484;43.608;1.458;2023-01-15T04:51:43;99728.69;;;17.54;100.00
49723;BME280;43484;43.608;1.458;2023-01-15T04:54:12;99753.72;;;17.55;100.00
49723;BME280;43484;43.608;1.458;2023-01-15T04:56:45;99758.88;;;17.55;100.00
49723;BME280;43484;43.608;1.458;2023-01-15T04:59:13;99761.47;;;17.55;100.00
49723;BME280;43484;43.608;1.458;2023-01-15T05:01:40;99775.31;;;17.56;100.00
49723;BME280;43484;43.608;1.458;2023-01-15T05:04:19;99808.97;;;17.57;100.00
49723;BME280;43484;43.608;1.458;2023-01-15T05:06:46;99815.03;;;17.58;100.00
49723;BME280;43484;43.608;1.458;2023-01-15T05:09:13;99830.56;;;17.59;100.00
49723;BME280;43484;43.608;1.458;2023-01-15T05:11:40;99824.53;;;17.59;100.00
49723;BME280;43484;43.608;1.458;2023-01-15T05:14:06;99827.13;;;17.59;100.00
49723;BME280;43484;43.608;1.458;2023-01-15T05:16:33;99828.84;;;17.60;100.00
49723;BME280;43484;43.608;1.458;2023-01-15T05:19:02;99830.56;;;17.61;100.00
49723;BME280;43484;43.608;1.458;2023-01-15T05:21:31;99824.53;;;17.59;100.00
49723;BME280;43484;43.608;1.458;2023-01-15T05:24:00;99818.50;;;17.60;100.00
49723;BME280;43484;43.608;1.458;2023-01-15T05:26:29;99813.31;;;17.61;100.00
49723;BME280;43484;43.608;1.458;2023-01-15T05:28:58;99811.56;;;17.62;100.00
49723;BME280;43484;43.608;1.458;2023-01-15T05:31:25;99816.75;;;17.62;100.00
49723;BME280;43484;43.608;1.458;2023-01-15T05:33:53;99816.75;;;17.62;100.00
49723;BME280;43484;43.608;1.458;2023-01-15T05:36:25;99817.63;;;17.80;100.00
49723;BME280;43484;43.608;1.458;2023-01-15T05:38:54;99827.97;;;17.67;100.00
49723;BME280;43484;43.608;1.458;2023-01-15T05:41:21;99827.13;;;17.99;100.00
49723;BME280;43484;43.608;1.458;2023-01-15T05:44:08;99834.03;;;17.69;100.00
49723;BME280;43484;43.608;1.458;2023-01-15T05:46:38;99829.72;;;17.66;100.00
49723;BME280;43484;43.608;1.458;2023-01-15T05:49:07;99833.16;;;17.65;100.00
49723;BME280;43484;43.608;1.458;2023-01-15T05:51:35;99838.34;;;17.67;100.00
49723;BME280;43484;43.608;1.458;2023-01-15T05:54:03;99837.50;;;17.66;100.00
49723;BME280;43484;43.608;1.458;2023-01-15T05:56:30;99840.09;;;17.68;100.00
49723;BME280;43484;43.608;1.458;2023-01-15T05:58:57;99843.53;;;17.67;100.00
49723;BME280;43484;43.608;1.458;2023-01-15T06:01:24;99839.22;;;17.67;100.00
49723;BME280;43484;43.608;1.458;2023-01-15T06:03:50;99839.22;;;17.67;100.00
49723;BME280;43484;43.608;1.458;2023-01-15T06:06:18;99849.56;;;17.69;100.00
49723;BME280;43484;43.608;1.458;2023-01-15T06:08:45;99854.75;;;17.69;100.00
49723;BME280;43484;43.608;1.458;2023-01-15T06:11:12;99861.69;;;17.70;100.00
49723;BME280;43484;43.608;1.458;2023-01-15T06:13:39;99865.13;;;17.70;100.00
49723;BME280;43484;43.608;1.458;2023-01-15T06:16:06;99872.94;;;17.73;100.00
49723;BME280;43484;43.608;1.458;2023-01-15T06:18:33;99869.47;;;17.74;100.00
49723;BME280;43484;43.608;1.458;2023-01-15T06:21:09;99887.59;;;17.74;100.00
49723;BME280;43484;43.608;1.458;2023-01-15T06:23:36;99887.59;;;17.74;100.00
49723;BME280;43484;43.608;1.458;2023-01-15T06:26:06;99877.22;;;17.73;100.00
49723;BME280;43484;43.608;1.458;2023-01-15T06:28:33;99886.72;;;17.75;100.00
49723;BME280;43484;43.608;1.458;2023-01-15T06:31:04;99894.50;;;17.75;100.00
49723;BME280;43484;43.608;1.458;2023-01-15T06:33:31;99906.59;;;17.75;100.00
49723;BME280;43484;43.608;1.458;2023-01-15T06:36:01;99913.50;;;17.76;100.00
49723;BME280;43484;43.608;1.458;2023-01-15T06:38:28;99922.16;;;17.78;100.00
49723;BME280;43484;43.608;1.458;2023-01-15T06:40:57;99941.13;;;17.77;100.00
49723;BME280;43484;43.608;1.458;2023-01-15T06:43:24;99965.34;;;17.77;100.00
49723;BME280;43484;43.608;1.458;2023-01-15T06:46:16;99967.06;;;17.77;100.00
49723;BME280;43484;43.608;1.458;2023-01-15T06:49:01;99969.63;;;17.77;100.00
49723;BME280;43484;43.608;1.458;2023-01-15T06:51:28;99972.25;;;17.78;100.00
49723;BME280;43484;43.608;1.458;2023-01-15T06:53:56;99976.56;;;17.79;100.00
49723;BME280;43484;43.608;1.458;2023-01-15T06:56:23;99988.66;;;17.79;100.00
49723;BME280;43484;43.608;1.458;2023-01-15T06:58:49;100005.94;;;17.78;100.00
49723;BME280;43484;43.608;1.458;2023-01-15T07:01:16;100032.72;;;17.79;100.00
49723;BME280;43484;43.608;1.458;2023-01-15T07:03:43;100015.44;;;17.79;100.00
49723;BME280;43484;43.608;1.458;2023-01-15T07:06:11;100001.63;;;17.77;100.00
49723;BME280;43484;43.608;1.458;2023-01-15T07:08:38;100017.16;;;17.77;100.00
49723;BME280;43484;43.608;1.458;2023-01-15T07:11:07;100031.88;;;17.78;100.00
49723;BME280;43484;43.608;1.458;2023-01-15T07:13:35;100048.25;;;17.77;100.00
49723;BME280;43484;43.608;1.458;2023-01-15T07:16:03;100062.09;;;17.78;100.00
49723;BME280;43484;43.608;1.458;2023-01-15T07:18:31;100073.34;;;17.78;100.00
49723;BME280;43484;43.608;1.458;2023-01-15T07:20:59;100076.78;;;17.79;100.00
49723;BME280;43484;43.608;1.458;2023-01-15T07:23:27;100092.31;;;17.77;100.00
49723;BME280;43484;43.608;1.458;2023-01-15T07:25:54;100099.25;;;17.78;100.00
49723;BME280;43484;43.608;1.458;2023-01-15T07:28:22;100115.63;;;17.77;100.00
49723;BME280;43484;43.608;1.458;2023-01-15T07:30:48;100113.91;;;17.78;100.00
49723;BME280;43484;43.608;1.458;2023-01-15T07:33:15;100118.22;;;17.79;100.00
49723;BME280;43484;43.608;1.458;2023-01-15T07:35:41;100114.78;;;17.78;100.00
49723;BME280;43484;43.608;1.458;2023-01-15T07:38:08;100124.28;;;17.78;100.00
49723;BME280;43484;43.608;1.458;2023-01-15T07:40:34;100125.16;;;17.78;100.00
49723;BME280;43484;43.608;1.458;2023-01-15T07:43:01;100124.28;;;17.78;100.00
49723;BME280;43484;43.608;1.458;2023-01-15T07:45:46;100125.13;;;17.77;100.00
49723;BME280;43484;43.608;1.458;2023-01-15T07:48:33;100127.75;;;17.78;100.00
49723;BME280;43484;43.608;1.458;2023-01-15T07:51:18;100134.66;;;17.78;100.00
49723;BME280;43484;43.608;1.458;2023-01-15T07:53:45;100135.53;;;17.80;100.00
49723;BME280;43484;43.608;1.458;2023-01-15T07:56:11;100142.44;;;17.81;100.00
49723;BME280;43484;43.608;1.458;2023-01-15T07:58:38;100142.44;;;17.79;100.00
49723;BME280;43484;43.608;1.458;2023-01-15T08:01:05;100149.34;;;17.80;100.00
49723;BME280;43484;43.608;1.458;2023-01-15T08:03:32;100163.16;;;17.79;100.00
49723;BME280;43484;43.608;1.458;2023-01-15T08:05:58;100169.25;;;17.90;100.00
49723;BME280;43484;43.608;1.458;2023-01-15T08:08:25;100176.19;;;17.91;100.00
49723;BME280;43484;43.608;1.458;2023-01-15T08:10:51;100185.69;;;17.92;100.00
49723;BME280;43484;43.608;1.458;2023-01-15T08:13:37;100188.28;;;17.91;100.00
49723;BME280;43484;43.608;1.458;2023-01-15T08:16:21;100203.00;;;17.95;100.00
49723;BME280;43484;43.608;1.458;2023-01-15T08:18:48;100204.78;;;18.06;100.00
49723;BME280;43484;43.608;1.458;2023-01-15T08:21:15;100221.25;;;18.14;100.00
49723;BME280;43484;43.608;1.458;2023-01-15T08:23:42;100222.97;;;18.15;100.00
49723;BME280;43484;43.608;1.458;2023-01-15T08:26:08;100232.44;;;18.07;100.00
49723;BME280;43484;43.608;1.458;2023-01-15T08:28:35;100230.66;;;18.00;100.00
49723;BME280;43484;43.608;1.458;2023-01-15T08:31:04;100228.94;;;17.99;100.00
49723;BME280;43484;43.608;1.458;2023-01-15T08:33:31;100238.44;;;17.99;100.00
49723;BME280;43484;43.608;1.458;2023-01-15T08:35:58;100233.25;;;17.99;100.00
49723;BME280;43484;43.608;1.458;2023-01-15T08:38:25;100238.50;;;18.09;100.00
49723;BME280;43484;43.608;1.458;2023-01-15T08:40:54;100238.56;;;18.18;100.00
49723;BME280;43484;43.608;1.458;2023-01-15T08:43:30;100245.53;;;18.27;100.00
49723;BME280;43484;43.608;1.458;2023-01-15T08:46:03;100248.16;;;18.36;100.00
49723;BME280;43484;43.608;1.458;2023-01-15T08:48:31;100248.13;;;18.28;100.00
49723;BME280;43484;43.608;1.458;2023-01-15T08:50:58;100257.63;;;18.31;100.00
49723;BME280;43484;43.608;1.458;2023-01-15T08:53:24;100253.34;;;18.34;100.00
49723;BME280;43484;43.608;1.458;2023-01-15T08:55:54;100256.81;;;18.36;100.00
49723;BME280;43484;43.608;1.458;2023-01-15T08:58:20;100265.47;;;18.38;100.00
49723;BME280;43484;43.608;1.458;2023-01-15T09:00:47;100273.28;;;18.40;100.00
49723;BME280;43484;43.608;1.458;2023-01-15T09:03:14;100287.09;;;18.40;100.00
49723;BME280;43484;43.608;1.458;2023-01-15T09:05:40;100284.56;;;18.42;100.00
49723;BME280;43484;43.608;1.458;2023-01-15T09:08:07;100285.41;;;18.45;100.00
49723;BME280;43484;43.608;1.458;2023-01-15T09:10:34;100283.75;;;18.52;100.00
49723;BME280;43484;43.608;1.458;2023-01-15T09:13:02;100279.44;;;18.60;100.00
49723;BME280;43484;43.608;1.458;2023-01-15T09:15:30;100286.34;;;18.59;100.00
49723;BME280;43484;43.608;1.458;2023-01-15T09:17:57;100276.78;;;18.51;100.00
49723;BME280;43484;43.608;1.458;2023-01-15T09:20:24;100282.78;;;18.39;100.00
49723;BME280;43484;43.608;1.458;2023-01-15T09:22:50;100289.63;;;18.31;100.00
49723;BME280;43484;43.608;1.458;2023-01-15T09:25:17;100281.84;;;18.27;100.00
49723;BME280;43484;43.608;1.458;2023-01-15T09:27:45;100288.75;;;18.25;100.00
49723;BME280;43484;43.608;1.458;2023-01-15T09:30:16;100303.44;;;18.26;100.00
49723;BME280;43484;43.608;1.458;2023-01-15T09:32:43;100305.13;;;18.22;100.00
49723;BME280;43484;43.608;1.458;2023-01-15T09:35:10;100304.28;;;18.22;100.00
49723;BME280;43484;43.608;1.458;2023-01-15T09:37:37;100313.78;;;18.20;100.00
49723;BME280;43484;43.608;1.458;2023-01-15T09:40:05;100312.91;;;18.21;100.00
49723;BME280;43484;43.608;1.458;2023-01-15T09:42:48;100308.59;;;18.20;100.00
49723;BME280;43484;43.608;1.458;2023-01-15T09:45:29;100306.00;;;18.18;100.00
49723;BME280;43484;43.608;1.458;2023-01-15T09:54:28;100331.94;;;18.18;100.00
49723;BME280;43484;43.608;1.458;2023-01-15T09:57:02;100332.81;;;18.23;100.00
49723;BME280;43484;43.608;1.458;2023-01-15T09:59:34;100340.63;;;18.31;100.00
49723;BME280;43484;43.608;1.458;2023-01-15T10:02:11;100346.69;;;18.28;100.00
49723;BME280;43484;43.608;1.458;2023-01-15T10:04:49;100345.00;;;18.33;100.00
49723;BME280;43484;43.608;1.458;2023-01-15T10:07:35;100338.06;;;18.32;100.00
49723;BME280;43484;43.608;1.458;2023-01-15T10:10:10;100348.41;;;18.29;100.00
49723;BME280;43484;43.608;1.458;2023-01-15T10:12:38;100347.59;;;18.36;100.00
49723;BME280;43484;43.608;1.458;2023-01-15T10:26:37;100349.44;;;18.48;100.00
49723;BME280;43484;43.608;1.458;2023-01-15T10:29:30;100359.78;;;18.43;100.00
49723;BME280;43484;43.608;1.458;2023-01-15T10:40:25;100351.19;;;18.52;100.00
49723;BME280;43484;43.608;1.458;2023-01-15T10:45:40;100351.22;;;18.56;100.00
49723;BME280;43484;43.608;1.458;2023-01-15T10:48:12;100345.16;;;18.57;100.00
49723;BME280;43484;43.608;1.458;2023-01-15T10:50:42;100341.72;;;18.60;100.00
49723;BME280;43484;43.608;1.458;2023-01-15T10:53:33;100337.44;;;18.65;100.00
49723;BME280;43484;43.608;1.458;2023-01-15T10:56:07;100334.81;;;18.65;100.00
49723;BME280;43484;43.608;1.458;2023-01-15T10:59:24;100331.38;;;18.67;100.00
49723;BME280;43484;43.608;1.458;2023-01-15T11:01:58;100332.22;;;18.66;100.00
49723;BME280;43484;43.608;1.458;2023-01-15T11:04:28;100333.13;;;18.73;100.00
49723;BME280;43484;43.608;1.458;2023-01-15T11:06:56;100333.13;;;18.79;100.00
49723;BME280;43484;43.608;1.458;2023-01-15T11:09:26;100326.22;;;18.72;100.00
49723;BME280;43484;43.608;1.458;2023-01-15T11:12:23;100315.78;;;18.67;100.00
49723;BME280;43484;43.608;1.458;2023-01-15T11:14:50;100310.59;;;18.64;100.00
49723;BME280;43484;43.608;1.458;2023-01-15T11:17:42;100310.59;;;18.70;100.00
49723;BME280;43484;43.608;1.458;2023-01-15T11:20:30;100305.47;;;18.84;100.00
49723;BME280;43484;43.608;1.458;2023-01-15T11:23:07;100298.56;;;18.91;100.00
49723;BME280;43484;43.608;1.458;2023-01-15T11:25:34;100299.44;;;18.88;100.00
49723;BME280;43484;43.608;1.458;2023-01-15T11:28:04;100281.28;;;18.96;100.00
49723;BME280;43484;43.608;1.458;2023-01-15T11:30:36;100282.16;;;18.98;100.00
49723;BME280;43484;43.608;1.458;2023-01-15T11:33:05;100285.63;;;18.98;100.00
49723;BME280;43484;43.608;1.458;2023-01-15T11:35:32;100273.47;;;18.87;100.00
49723;BME280;43484;43.608;1.458;2023-01-15T11:38:10;100265.66;;;18.77;100.00
49723;BME280;43484;43.608;1.458;2023-01-15T11:40:38;100275.16;;;18.74;100.00
49723;BME280;43484;43.608;1.458;2023-01-15T11:43:26;100253.50;;;18.69;100.00
49723;BME280;43484;43.608;1.458;2023-01-15T11:46:29;100260.41;;;18.64;100.00
49723;BME280;43484;43.608;1.458;2023-01-15T11:49:17;100262.16;;;18.63;100.00
49723;BME280;43484;43.608;1.458;2023-01-15T11:52:09;100256.94;;;18.60;100.00
49723;BME280;43484;43.608;1.458;2023-01-15T11:54:38;100252.63;;;18.59;100.00
49723;BME280;43484;43.608;1.458;2023-01-15T11:57:07;100241.34;;;18.60;100.00
49723;BME280;43484;43.608;1.458;2023-01-15T11:59:34;100241.34;;;18.60;100.00
49723;BME280;43484;43.608;1.458;2023-01-15T12:04:54;100231.03;;;18.63;100.00
49723;BME280;43484;43.608;1.458;2023-01-15T12:07:24;100221.47;;;18.61;100.00
49723;BME280;43484;43.608;1.458;2023-01-15T12:17:54;100221.47;;;18.58;100.00
49723;BME280;43484;43.608;1.458;2023-01-15T12:25:51;100208.50;;;18.61;100.00
49723;BME280;43484;43.608;1.458;2023-01-15T12:28:31;100193.81;;;18.61;100.00
49723;BME280;43484;43.608;1.458;2023-01-15T12:31:11;100199.00;;;18.61;100.00
49723;BME280;43484;43.608;1.458;2023-01-15T12:42:03;100184.28;;;18.60;100.00
49723;BME280;43484;43.608;1.458;2023-01-15T12:44:54;100189.50;;;18.63;100.00
49723;BME280;43484;43.608;1.458;2023-01-15T12:50:45;100174.75;;;18.59;100.00
49723;BME280;43484;43.608;1.458;2023-01-15T12:53:18;100174.75;;;18.59;100.00
49723;BME280;43484;43.608;1.458;2023-01-15T12:58:48;100161.78;;;18.58;100.00
49723;BME280;43484;43.608;1.458;2023-01-15T13:01:30;100169.56;;;18.62;100.00
49723;BME280;43484;43.608;1.458;2023-01-15T13:06:29;100162.66;;;18.64;100.00
49723;BME280;43484;43.608;1.458;2023-01-15T13:11:39;100168.69;;;18.60;100.00
49723;BME280;43484;43.608;1.458;2023-01-15T13:14:15;100160.06;;;18.63;100.00
49723;BME280;43484;43.608;1.458;2023-01-15T13:22:23;100180.84;;;18.57;100.00
49723;BME280;43484;43.608;1.458;2023-01-15T13:33:23;100176.47;;;18.51;100.00
49723;BME280;43484;43.608;1.458;2023-01-15T13:35:57;100166.97;;;18.53;100.00
49723;BME280;43484;43.608;1.458;2023-01-15T13:38:32;100171.28;;;18.51;100.00
49723;BME280;43484;43.608;1.458;2023-01-15T13:41:04;100166.94;;;18.49;100.00
49723;BME280;43484;43.608;1.458;2023-01-15T13:43:42;100161.75;;;18.50;100.00
49723;BME280;43484;43.608;1.458;2023-01-15T13:46:11;100150.53;;;18.48;100.00
49723;BME280;43484;43.608;1.458;2023-01-15T13:48:49;100145.34;;;18.48;100.00
49723;BME280;43484;43.608;1.458;2023-01-15T13:51:31;100147.94;;;18.48;100.00
49723;BME280;43484;43.608;1.458;2023-01-15T13:54:03;100150.53;;;18.48;100.00
49723;BME280;43484;43.608;1.458;2023-01-15T13:56:33;100140.13;;;18.45;100.00
49723;BME280;43484;43.608;1.458;2023-01-15T13:59:05;100142.72;;;18.45;100.00
49723;BME280;43484;43.608;1.458;2023-01-15T14:01:34;100146.19;;;18.44;100.00
49723;BME280;43484;43.608;1.458;2023-01-15T14:06:48;100144.47;;;18.42;100.00
49723;BME280;43484;43.608;1.458;2023-01-15T14:14:28;100149.63;;;18.40;100.00
49723;BME280;43484;43.608;1.458;2023-01-15T14:33:57;100137.53;;;18.39;100.00
49723;BME280;43484;43.608;1.458;2023-01-15T14:36:38;100138.38;;;18.38;100.00
49723;BME280;43484;43.608;1.458;2023-01-15T14:39:24;100128.88;;;18.40;100.00
49723;BME280;43484;43.608;1.458;2023-01-15T14:45:17;100132.34;;;18.41;100.00
49723;BME280;43484;43.608;1.458;2023-01-15T14:50:44;100129.72;;;18.35;100.00
49723;BME280;43484;43.608;1.458;2023-01-15T14:55:57;100139.19;;;18.34;100.00
49723;BME280;43484;43.608;1.458;2023-01-15T14:58:46;100127.13;;;18.36;100.00
49723;BME280;43484;43.608;1.458;2023-01-15T15:04:14;100140.09;;;18.35;100.00
49723;BME280;43484;43.608;1.458;2023-01-15T15:06:50;100135.75;;;18.35;100.00
49723;BME280;43484;43.608;1.458;2023-01-15T15:09:56;100146.16;;;18.38;100.00
49723;BME280;43484;43.608;1.458;2023-01-15T15:15:04;100148.78;;;18.40;100.00
49723;BME280;43484;43.608;1.458;2023-01-15T15:20:21;100142.72;;;18.45;100.00